Terminal Aerodrome Forecast
Issued by NWS Grand Forks, ND

Home | Current Version | Previous Version | Graphics & Text | Print | Product List | Glossary On
Versions: 1 2 3 4 5 6 7 8 9 10 11 12 13 14 15 16
270
FTUS43 KFGF 200201 AAA
TAFFAR
TAF AMD
KFAR 200201Z 2002/2024 16012G17KT P6SM FEW250
     FM200500 18009KT P6SM SCT250
     FM200700 21007KT P6SM SCT200
     FM200900 30006KT P6SM SCT200=

USA.gov is the U.S. government's official web portal to all federal, state and local government web resources and services.